• Join FlightAware (Why Join?)
  • Login
  • US Flag 
10:53PM EDT


 

Airport Tracker/Info


-or-


 

Live Flight TrackerFlight Track Log ✈ UAL5832 ✈ 18-Apr-2013 ✈ KORD - KBNA

Flight Track Log - Related Links

Times and Time Zones

All times are in EDT time to prevent confusion due to time zone crossing. See the UAL5832 flight status page for this flight to view local times or setup timezone preferences in your user account.

Time Position Orientation Groundspeed Altitude Reporting Facility
EDT Latitude Longitude Course Direction KTS MPH feet Rate Location/Type
12:56AM 42.0000 -87.9333 189° South 169 194 1,500  Level Chicago TRACON
12:57AM 42.0333 -87.9833 312° West 194 223 4,100 2,280 Climbing Chicago TRACON
12:58AM 41.9667 -88.0000 191° South 247 284 6,100 2,040 Climbing Chicago TRACON
01:01AM 41.8319 -87.9636 169° South 233 268 10,800 2,100 Climbing Chicago Center
01:02AM 41.4787 -87.7926 189° South  Level Estimated
01:02AM 41.7631 -87.9561 175° South 245 282 13,100  Level Chicago Center
01:03AM 41.6986 -87.9675 188° South 234 269 15,200 1,920 Climbing Chicago Center
01:04AM 41.6350 -87.9817 189° South 232 267 17,100 1,500 Climbing Chicago Center
01:05AM 41.5664 -87.9961 189° South 247 284 18,300 1,080 Climbing Chicago Center
01:06AM 41.4867 -87.9864 175° South 282 325 19,300 1,020 Climbing Chicago Center
01:07AM 41.4022 -87.9708 172° South 295 339 20,400 1,020 Climbing Chicago Center
01:08AM 41.3172 -87.9550 172° South 302 348 21,400 1,020 Climbing Chicago Center
01:09AM 41.2328 -87.9392 172° South 305 351 22,500 1,200 Climbing Chicago Center
01:11AM 41.0709 -87.9035 173° South  Level FlightAware Approximate
01:12AM 40.9908 -87.8931 173° South 297 342 26,300  Level Kansas City Center
01:13AM 40.9103 -87.8789 172° South 293 337 27,600 1,440 Climbing Kansas City Center
01:13AM 40.8733 -87.8714 171° South 293 337 28,200 1,320 Climbing Indianapolis Center
01:14AM 40.8269 -87.8628 172° South 288 331 29,000 1,080 Climbing Chicago Center
01:15AM 40.7500 -87.8497 173° South 281 323 30,200 1,200 Climbing Chicago Center
01:16AM 40.6733 -87.8358 172° South 280 322 31,500 1,440 Climbing Chicago Center
01:17AM 40.5975 -87.8211 172° South 278 320 33,200 1,680 Climbing Chicago Center
01:18AM 40.5119 -87.8053 172° South 262 302 35,000 1,620 Climbing Chicago Center
01:19AM 40.4472 -87.7931 172° South 243 280 36,500 960 Climbing Chicago Center
01:20AM 40.3836 -87.7811 172° South 234 269 37,000 360 Climbing Chicago Center
01:20AM 40.3656 -87.7803 178° South 239 275 37,000  Level Indianapolis Center
01:21AM 40.2958 -87.7661 171° South 242 278 37,000  Level Indianapolis Center
01:22AM 40.2167 -87.7511 172° South 267 307 37,000  Level Indianapolis Center
01:23AM 40.1347 -87.7367 172° South 288 331 37,000  Level Indianapolis Center
01:24AM 40.0464 -87.7211 172° South 310 357 37,000  Level Indianapolis Center
01:25AM 39.9561 -87.7047 172° South 323 372 37,000  Level Indianapolis Center
01:26AM 39.8667 -87.6892 172° South 323 372 37,000  Level Indianapolis Center
01:27AM 39.7767 -87.6739 173° South 323 372 37,000  Level Indianapolis Center
01:28AM 39.6844 -87.6561 172° South 328 377 37,000  Level Indianapolis Center
01:29AM 39.5914 -87.6392 172° South 334 384 37,000  Level Indianapolis Center
01:30AM 39.4953 -87.6228 173° South 343 395 37,000  Level Indianapolis Center
01:31AM 39.4006 -87.6053 172° South 342 394 37,000  Level Indianapolis Center
01:32AM 39.3064 -87.5897 173° South 341 392 37,000  Level Indianapolis Center
01:33AM 39.2139 -87.5731 172° South 334 384 37,000  Level Indianapolis Center
01:34AM 39.1219 -87.5569 172° South 333 383 37,000  Level Indianapolis Center
01:35AM 39.0300 -87.5422 173° South 333 383 37,000  Level Indianapolis Center
01:36AM 38.9367 -87.5244 172° South 337 388 37,000  Level Indianapolis Center
01:37AM 38.8428 -87.5094 173° South 339 390 37,000  Level Indianapolis Center
01:38AM 38.7489 -87.4922 172° South 338 389 37,000  Level Indianapolis Center
01:39AM 38.6544 -87.4764 173° South 341 392 37,000  Level Indianapolis Center
01:40AM 38.5600 -87.4603 172° South 343 395 37,000  Level Indianapolis Center
01:41AM 38.4658 -87.4433 172° South 342 394 37,000 -360 Level Indianapolis Center
01:42AM 38.3708 -87.4281 173° South 343 395 36,300 -1,140 Descending Indianapolis Center
01:43AM 38.2764 -87.4114 172° South 344 396 34,800 -1,440 Descending Indianapolis Center
01:44AM 38.1803 -87.3956 173° South 349 402 33,400 -1,500 Descending Indianapolis Center
01:45AM 38.0803 -87.3783 172° South 362 417 31,900 -1,380 Descending Indianapolis Center
01:46AM 37.9769 -87.3603 172° South 373 429 30,700 -960 Descending Indianapolis Center
01:47AM 37.8719 -87.3425 172° South 378 435 30,000 -360 Descending Indianapolis Center
01:48AM 37.7714 -87.3250 172° South 368 423 30,000 -780 Level Indianapolis Center
01:49AM 37.6683 -87.3086 173° South 369 425 28,500 -2,340 Descending Indianapolis Center
01:50AM 37.5664 -87.2917 172° South 366 421 25,400 -2,700 Descending Indianapolis Center
01:51AM 37.4575 -87.2742 173° South 388 447 23,100 -1,200 Descending Indianapolis Center
01:52AM 37.3547 -87.2561 172° South 372 428 23,000 -120 Descending Indianapolis Center
01:53AM 37.3136 -87.2483 171° South 371 427 23,000 -900 Level Memphis Center
01:53AM 37.2256 -87.2181 165° South 382 440 22,000 -1,500 Descending Memphis Center
01:54AM 37.1983 -87.2139 173° South 384 442 21,400 -2,340 Descending Memphis Center
01:54AM 37.1228 -87.1883 165° South 376 433 19,700 -2,280 Descending Memphis Center
01:55AM 37.0997 -87.1839 171° South 378 435 19,100 -2,340 Descending Memphis Center
01:55AM 37.0261 -87.1608 166° South 371 427 17,400 -2,280 Descending Memphis Center
01:56AM 36.9967 -87.1542 170° South 366 421 16,800 -2,040 Descending Memphis Center
01:56AM 36.9253 -87.1311 166° South 371 427 15,400 -1,920 Descending Memphis Center
01:57AM 36.9022 -87.1269 172° South 364 419 14,900 -2,040 Descending Memphis Center
01:57AM 36.8286 -87.1014 164° South 366 421 13,400 -1,920 Descending Memphis Center
01:58AM 36.7503 -87.0581 156° South 331 381 11,700 -1,560 Descending Memphis Center
01:59AM 36.6825 -87.0167 154° Southeast 290 334 10,300 -1,620 Descending Memphis Center
02:00AM 36.6206 -86.9597 144° Southeast 275 316 8,500 -1,620 Descending Memphis Center
02:01AM 36.5711 -86.9025 137° Southeast 270 311 7,100 -1,440 Descending Memphis Center
02:02AM 36.5194 -86.8428 137° Southeast 259 298 5,700 -1,260 Descending Memphis Center
02:03AM 36.4656 -86.7781 136° Southeast 259 298 4,600 -840 Descending Memphis Center
02:04AM 36.4050 -86.7111 138° Southeast 259 298 4,100 -300 Descending Memphis Center
02:05AM 36.3617 -86.6511 132° Southeast 247 284 4,000 -180 Descending Memphis Center
02:06AM 36.3206 -86.6014 136° Southeast 229 264 3,800 -540 Descending Memphis Center
02:07AM 36.2664 -86.6067 184° South 188 216 3,000 -840 Descending Memphis Center
02:08AM 36.2192 -86.6242 197° South 177 204 2,200 -720 Descending Memphis Center
02:09AM 36.1861 -86.6386 199° South 147 169 1,600 -660 Descending Memphis Center
02:10AM 36.1511 -86.6531 198° South 142 163 900 420 Descending Memphis Center
02:11AM 36.1058 -86.6706 197° South 160 184 2,500 1,080 Climbing Memphis Center
02:12AM 36.1056 -86.7372 270° West 160 184 3,100 300 Climbing Memphis Center
02:13AM 36.1644 -86.7500 350° North 167 192 3,100  Level Memphis Center
02:14AM 36.2303 -86.7214 19° North 201 231 3,100  Level Memphis Center
02:15AM 36.2919 -86.6903 22° Northeast 233 268 3,100 -180 Level Memphis Center
02:16AM 36.2881 -86.6314 95° East 171 197 2,800 -300 Descending Memphis Center
02:17AM 36.2342 -86.6364 184° South 115 132 2,500 -600 Descending Memphis Center
02:18AM 36.1889 -86.6617 204° Southwest 161 185 1,700 -780 Descending Memphis Center
02:19AM 36.1497 -86.6736 194° South 166 191 1,000 -480 Descending Memphis Center
02:20AM 36.1128 -86.6933 203° Southwest 166 191 800 3,960 Descending Memphis Center
02:21AM 36.0717 -86.7131 201° Southwest 166 191 9,000 8,160 Climbing Memphis Center
02:23AM 36.1245 -86.6782 28° Northeast  Level Estimated